sensor_id;sensor_type;location;lat;lon;timestamp;P1;durP1;ratioP1;P2;durP2;ratioP2
43650;SDS011;29247;50.944;5.382;2023-06-10T00:00:04;9.85;;;7.25;;
43650;SDS011;29247;50.944;5.382;2023-06-10T00:02:32;7.50;;;6.70;;
43650;SDS011;29247;50.944;5.382;2023-06-10T00:05:00;8.48;;;7.43;;
43650;SDS011;29247;50.944;5.382;2023-06-10T00:07:25;9.02;;;7.43;;
43650;SDS011;29247;50.944;5.382;2023-06-10T00:09:51;9.23;;;7.43;;
43650;SDS011;29247;50.944;5.382;2023-06-10T00:12:20;8.30;;;7.45;;
43650;SDS011;29247;50.944;5.382;2023-06-10T00:14:46;9.68;;;7.18;;
43650;SDS011;29247;50.944;5.382;2023-06-10T00:17:15;8.38;;;7.18;;
43650;SDS011;29247;50.944;5.382;2023-06-10T00:19:41;13.10;;;6.88;;
43650;SDS011;29247;50.944;5.382;2023-06-10T00:22:07;7.72;;;7.03;;
43650;SDS011;29247;50.944;5.382;2023-06-10T00:24:34;7.72;;;6.97;;
43650;SDS011;29247;50.944;5.382;2023-06-10T00:27:00;10.48;;;6.90;;
43650;SDS011;29247;50.944;5.382;2023-06-10T00:29:26;11.45;;;7.47;;
43650;SDS011;29247;50.944;5.382;2023-06-10T00:31:51;8.70;;;7.38;;
43650;SDS011;29247;50.944;5.382;2023-06-10T00:34:18;10.15;;;7.40;;
43650;SDS011;29247;50.944;5.382;2023-06-10T00:36:44;9.95;;;7.53;;
43650;SDS011;29247;50.944;5.382;2023-06-10T00:39:10;8.05;;;7.07;;
43650;SDS011;29247;50.944;5.382;2023-06-10T00:41:36;8.05;;;7.25;;
43650;SDS011;29247;50.944;5.382;2023-06-10T00:44:01;9.10;;;7.80;;
43650;SDS011;29247;50.944;5.382;2023-06-10T00:46:27;8.02;;;7.20;;
43650;SDS011;29247;50.944;5.382;2023-06-10T00:49:00;7.28;;;6.55;;
43650;SDS011;29247;50.944;5.382;2023-06-10T00:51:29;11.73;;;7.10;;
43650;SDS011;29247;50.944;5.382;2023-06-10T00:53:54;7.80;;;6.72;;
43650;SDS011;29247;50.944;5.382;2023-06-10T00:56:21;8.75;;;7.47;;
43650;SDS011;29247;50.944;5.382;2023-06-10T00:58:47;9.45;;;7.20;;
43650;SDS011;29247;50.944;5.382;2023-06-10T01:01:13;10.05;;;7.63;;
43650;SDS011;29247;50.944;5.382;2023-06-10T01:03:39;9.40;;;8.43;;
43650;SDS011;29247;50.944;5.382;2023-06-10T01:08:55;10.52;;;7.80;;
43650;SDS011;29247;50.944;5.382;2023-06-10T01:11:36;8.18;;;7.38;;
43650;SDS011;29247;50.944;5.382;2023-06-10T01:14:25;13.13;;;8.52;;
43650;SDS011;29247;50.944;5.382;2023-06-10T01:16:52;8.95;;;7.78;;
43650;SDS011;29247;50.944;5.382;2023-06-10T01:19:23;7.50;;;6.70;;
43650;SDS011;29247;50.944;5.382;2023-06-10T01:21:49;10.50;;;7.68;;
43650;SDS011;29247;50.944;5.382;2023-06-10T01:24:19;9.63;;;7.88;;
43650;SDS011;29247;50.944;5.382;2023-06-10T01:26:44;8.55;;;7.70;;
43650;SDS011;29247;50.944;5.382;2023-06-10T01:29:18;9.25;;;8.35;;
43650;SDS011;29247;50.944;5.382;2023-06-10T01:31:52;10.15;;;8.70;;
43650;SDS011;29247;50.944;5.382;2023-06-10T01:34:28;10.25;;;8.90;;
43650;SDS011;29247;50.944;5.382;2023-06-10T01:37:02;14.27;;;9.25;;
43650;SDS011;29247;50.944;5.382;2023-06-10T01:39:28;9.30;;;8.37;;
43650;SDS011;29247;50.944;5.382;2023-06-10T01:41:58;8.93;;;8.02;;
43650;SDS011;29247;50.944;5.382;2023-06-10T01:44:27;9.88;;;8.75;;
43650;SDS011;29247;50.944;5.382;2023-06-10T01:46:57;9.55;;;8.18;;
43650;SDS011;29247;50.944;5.382;2023-06-10T01:51:51;8.93;;;7.80;;
43650;SDS011;29247;50.944;5.382;2023-06-10T01:54:19;8.98;;;8.05;;
43650;SDS011;29247;50.944;5.382;2023-06-10T01:56:47;9.23;;;7.57;;
43650;SDS011;29247;50.944;5.382;2023-06-10T01:59:13;9.35;;;7.82;;
43650;SDS011;29247;50.944;5.382;2023-06-10T02:01:41;9.00;;;8.13;;
43650;SDS011;29247;50.944;5.382;2023-06-10T02:04:09;8.48;;;7.53;;
43650;SDS011;29247;50.944;5.382;2023-06-10T02:06:35;10.93;;;8.50;;
43650;SDS011;29247;50.944;5.382;2023-06-10T02:09:02;9.10;;;8.20;;
43650;SDS011;29247;50.944;5.382;2023-06-10T02:11:28;9.40;;;8.40;;
43650;SDS011;29247;50.944;5.382;2023-06-10T02:13:56;10.95;;;8.43;;
43650;SDS011;29247;50.944;5.382;2023-06-10T02:16:24;11.18;;;8.55;;
43650;SDS011;29247;50.944;5.382;2023-06-10T02:18:54;13.70;;;8.70;;
43650;SDS011;29247;50.944;5.382;2023-06-10T02:21:19;10.27;;;8.35;;
43650;SDS011;29247;50.944;5.382;2023-06-10T02:26:15;9.30;;;8.00;;
43650;SDS011;29247;50.944;5.382;2023-06-10T02:28:44;9.55;;;8.20;;
43650;SDS011;29247;50.944;5.382;2023-06-10T02:31:12;12.93;;;8.65;;
43650;SDS011;29247;50.944;5.382;2023-06-10T02:33:38;9.77;;;7.95;;
43650;SDS011;29247;50.944;5.382;2023-06-10T02:36:05;8.80;;;7.82;;
43650;SDS011;29247;50.944;5.382;2023-06-10T02:38:34;9.43;;;8.10;;
43650;SDS011;29247;50.944;5.382;2023-06-10T02:41:04;11.18;;;8.50;;
43650;SDS011;29247;50.944;5.382;2023-06-10T02:43:34;13.48;;;8.20;;
43650;SDS011;29247;50.944;5.382;2023-06-10T02:46:02;11.15;;;8.05;;
43650;SDS011;29247;50.944;5.382;2023-06-10T02:48:28;10.45;;;8.20;;
43650;SDS011;29247;50.944;5.382;2023-06-10T02:50:53;9.52;;;8.50;;
43650;SDS011;29247;50.944;5.382;2023-06-10T02:53:20;12.00;;;7.60;;
43650;SDS011;29247;50.944;5.382;2023-06-10T02:55:47;8.88;;;8.05;;
43650;SDS011;29247;50.944;5.382;2023-06-10T02:58:15;9.57;;;7.55;;
43650;SDS011;29247;50.944;5.382;2023-06-10T03:00:42;14.20;;;9.20;;
43650;SDS011;29247;50.944;5.382;2023-06-10T03:03:10;9.75;;;8.75;;
43650;SDS011;29247;50.944;5.382;2023-06-10T03:05:35;9.82;;;8.82;;
43650;SDS011;29247;50.944;5.382;2023-06-10T03:08:01;9.82;;;8.68;;
43650;SDS011;29247;50.944;5.382;2023-06-10T03:10:29;12.35;;;8.93;;
43650;SDS011;29247;50.944;5.382;2023-06-10T03:12:58;14.20;;;8.90;;
43650;SDS011;29247;50.944;5.382;2023-06-10T03:15:23;9.98;;;8.98;;
43650;SDS011;29247;50.944;5.382;2023-06-10T03:17:49;9.52;;;8.32;;
43650;SDS011;29247;50.944;5.382;2023-06-10T03:20:15;9.02;;;8.00;;
43650;SDS011;29247;50.944;5.382;2023-06-10T03:22:43;10.40;;;9.27;;
43650;SDS011;29247;50.944;5.382;2023-06-10T03:25:11;9.73;;;8.32;;
43650;SDS011;29247;50.944;5.382;2023-06-10T03:27:42;11.07;;;8.50;;
43650;SDS011;29247;50.944;5.382;2023-06-10T03:30:08;16.08;;;9.38;;
43650;SDS011;29247;50.944;5.382;2023-06-10T03:32:35;9.38;;;8.38;;
43650;SDS011;29247;50.944;5.382;2023-06-10T03:35:04;9.88;;;8.82;;
43650;SDS011;29247;50.944;5.382;2023-06-10T03:37:30;10.48;;;8.55;;
43650;SDS011;29247;50.944;5.382;2023-06-10T03:42:26;10.18;;;8.75;;
43650;SDS011;29247;50.944;5.382;2023-06-10T03:44:54;10.45;;;9.20;;
43650;SDS011;29247;50.944;5.382;2023-06-10T03:49:48;9.70;;;8.32;;
43650;SDS011;29247;50.944;5.382;2023-06-10T03:52:19;10.55;;;8.75;;
43650;SDS011;29247;50.944;5.382;2023-06-10T03:54:44;9.95;;;8.48;;
43650;SDS011;29247;50.944;5.382;2023-06-10T03:57:10;11.90;;;8.45;;
43650;SDS011;29247;50.944;5.382;2023-06-10T03:59:36;9.88;;;8.65;;
43650;SDS011;29247;50.944;5.382;2023-06-10T04:02:07;10.43;;;8.75;;
43650;SDS011;29247;50.944;5.382;2023-06-10T04:04:33;10.10;;;9.10;;
43650;SDS011;29247;50.944;5.382;2023-06-10T04:06:59;9.88;;;8.85;;
43650;SDS011;29247;50.944;5.382;2023-06-10T04:09:25;13.02;;;9.43;;
43650;SDS011;29247;50.944;5.382;2023-06-10T04:11:56;11.57;;;9.02;;
43650;SDS011;29247;50.944;5.382;2023-06-10T04:14:21;12.90;;;9.75;;
43650;SDS011;29247;50.944;5.382;2023-06-10T04:16:49;9.57;;;8.57;;
43650;SDS011;29247;50.944;5.382;2023-06-10T04:19:15;10.57;;;8.95;;
43650;SDS011;29247;50.944;5.382;2023-06-10T04:21:41;11.05;;;9.13;;
43650;SDS011;29247;50.944;5.382;2023-06-10T04:24:07;11.30;;;9.68;;
43650;SDS011;29247;50.944;5.382;2023-06-10T04:26:35;11.90;;;8.77;;
43650;SDS011;29247;50.944;5.382;2023-06-10T04:29:01;10.73;;;9.02;;
43650;SDS011;29247;50.944;5.382;2023-06-10T04:31:27;11.38;;;8.98;;
43650;SDS011;29247;50.944;5.382;2023-06-10T04:33:57;12.50;;;9.52;;
43650;SDS011;29247;50.944;5.382;2023-06-10T04:36:22;14.00;;;9.93;;
43650;SDS011;29247;50.944;5.382;2023-06-10T04:42:12;12.05;;;10.00;;
43650;SDS011;29247;50.944;5.382;2023-06-10T04:44:38;14.13;;;8.93;;
43650;SDS011;29247;50.944;5.382;2023-06-10T04:47:04;12.63;;;9.10;;
43650;SDS011;29247;50.944;5.382;2023-06-10T04:49:30;11.48;;;9.35;;
43650;SDS011;29247;50.944;5.382;2023-06-10T04:52:00;12.50;;;9.07;;
43650;SDS011;29247;50.944;5.382;2023-06-10T04:54:32;12.65;;;9.18;;
43650;SDS011;29247;50.944;5.382;2023-06-10T04:56:57;10.23;;;9.13;;
43650;SDS011;29247;50.944;5.382;2023-06-10T04:59:23;12.45;;;9.20;;
43650;SDS011;29247;50.944;5.382;2023-06-10T05:01:49;10.15;;;9.07;;
43650;SDS011;29247;50.944;5.382;2023-06-10T05:04:14;10.50;;;9.40;;
43650;SDS011;29247;50.944;5.382;2023-06-10T05:06:40;10.75;;;9.50;;
43650;SDS011;29247;50.944;5.382;2023-06-10T05:09:05;10.98;;;8.57;;
43650;SDS011;29247;50.944;5.382;2023-06-10T05:11:34;13.52;;;8.90;;
43650;SDS011;29247;50.944;5.382;2023-06-10T05:13:59;10.05;;;8.82;;
43650;SDS011;29247;50.944;5.382;2023-06-10T05:16:30;9.38;;;8.07;;
43650;SDS011;29247;50.944;5.382;2023-06-10T05:18:55;8.90;;;8.07;;
43650;SDS011;29247;50.944;5.382;2023-06-10T05:21:23;12.77;;;9.02;;
43650;SDS011;29247;50.944;5.382;2023-06-10T05:23:49;11.38;;;7.90;;
43650;SDS011;29247;50.944;5.382;2023-06-10T05:26:15;12.32;;;8.50;;
43650;SDS011;29247;50.944;5.382;2023-06-10T05:28:45;14.88;;;8.68;;
43650;SDS011;29247;50.944;5.382;2023-06-10T05:34:28;11.10;;;8.43;;
43650;SDS011;29247;50.944;5.382;2023-06-10T05:36:55;10.43;;;8.73;;
43650;SDS011;29247;50.944;5.382;2023-06-10T05:39:32;11.40;;;8.55;;
43650;SDS011;29247;50.944;5.382;2023-06-10T05:42:02;9.38;;;8.18;;
43650;SDS011;29247;50.944;5.382;2023-06-10T05:44:31;12.10;;;8.43;;
43650;SDS011;29247;50.944;5.382;2023-06-10T05:47:00;10.25;;;8.15;;
43650;SDS011;29247;50.944;5.382;2023-06-10T05:49:28;9.82;;;8.23;;
43650;SDS011;29247;50.944;5.382;2023-06-10T05:51:53;10.88;;;8.48;;
43650;SDS011;29247;50.944;5.382;2023-06-10T05:54:21;9.40;;;8.45;;
43650;SDS011;29247;50.944;5.382;2023-06-10T05:56:49;11.52;;;8.40;;
43650;SDS011;29247;50.944;5.382;2023-06-10T05:59:17;11.05;;;9.10;;
43650;SDS011;29247;50.944;5.382;2023-06-10T06:01:43;8.88;;;7.97;;
43650;SDS011;29247;50.944;5.382;2023-06-10T06:04:11;9.55;;;7.78;;
43650;SDS011;29247;50.944;5.382;2023-06-10T06:06:38;12.82;;;8.00;;
43650;SDS011;29247;50.944;5.382;2023-06-10T06:09:05;10.27;;;7.82;;
43650;SDS011;29247;50.944;5.382;2023-06-10T06:11:33;11.55;;;8.88;;
43650;SDS011;29247;50.944;5.382;2023-06-10T06:13:59;11.57;;;8.60;;
43650;SDS011;29247;50.944;5.382;2023-06-10T06:16:28;11.32;;;8.05;;
43650;SDS011;29247;50.944;5.382;2023-06-10T06:18:54;11.43;;;7.78;;
43650;SDS011;29247;50.944;5.382;2023-06-10T06:21:20;12.95;;;7.70;;
43650;SDS011;29247;50.944;5.382;2023-06-10T06:23:48;9.02;;;7.88;;
43650;SDS011;29247;50.944;5.382;2023-06-10T06:26:14;14.32;;;9.50;;
43650;SDS011;29247;50.944;5.382;2023-06-10T06:28:39;10.43;;;7.50;;
43650;SDS011;29247;50.944;5.382;2023-06-10T06:31:05;10.43;;;7.40;;
43650;SDS011;29247;50.944;5.382;2023-06-10T06:33:31;8.93;;;6.95;;
43650;SDS011;29247;50.944;5.382;2023-06-10T06:35:58;10.52;;;7.20;;
43650;SDS011;29247;50.944;5.382;2023-06-10T06:38:27;8.77;;;7.22;;
43650;SDS011;29247;50.944;5.382;2023-06-10T06:40:53;8.60;;;6.93;;
43650;SDS011;29247;50.944;5.382;2023-06-10T06:43:21;8.68;;;7.50;;
43650;SDS011;29247;50.944;5.382;2023-06-10T06:45:47;7.72;;;6.93;;
43650;SDS011;29247;50.944;5.382;2023-06-10T06:48:12;7.32;;;6.38;;
43650;SDS011;29247;50.944;5.382;2023-06-10T06:50:38;8.60;;;6.60;;
43650;SDS011;29247;50.944;5.382;2023-06-10T06:53:06;8.30;;;7.50;;
43650;SDS011;29247;50.944;5.382;2023-06-10T06:55:32;11.05;;;7.70;;
43650;SDS011;29247;50.944;5.382;2023-06-10T06:57:57;7.88;;;6.40;;
43650;SDS011;29247;50.944;5.382;2023-06-10T07:00:26;7.43;;;6.68;;
43650;SDS011;29247;50.944;5.382;2023-06-10T07:02:51;8.85;;;6.90;;
43650;SDS011;29247;50.944;5.382;2023-06-10T07:05:20;8.00;;;5.93;;
43650;SDS011;29247;50.944;5.382;2023-06-10T07:07:45;8.10;;;6.80;;
43650;SDS011;29247;50.944;5.382;2023-06-10T07:10:11;8.70;;;5.75;;
43650;SDS011;29247;50.944;5.382;2023-06-10T07:12:37;8.75;;;6.55;;
43650;SDS011;29247;50.944;5.382;2023-06-10T07:15:05;7.35;;;5.63;;
43650;SDS011;29247;50.944;5.382;2023-06-10T07:17:31;7.07;;;6.13;;
43650;SDS011;29247;50.944;5.382;2023-06-10T07:19:57;6.60;;;5.28;;
43650;SDS011;29247;50.944;5.382;2023-06-10T07:22:24;6.43;;;5.82;;
43650;SDS011;29247;50.944;5.382;2023-06-10T07:24:50;6.93;;;5.78;;
43650;SDS011;29247;50.944;5.382;2023-06-10T07:27:16;6.40;;;5.80;;
43650;SDS011;29247;50.944;5.382;2023-06-10T07:29:42;6.10;;;5.53;;
43650;SDS011;29247;50.944;5.382;2023-06-10T07:32:08;6.43;;;5.85;;
43650;SDS011;29247;50.944;5.382;2023-06-10T07:34:34;6.47;;;5.82;;
43650;SDS011;29247;50.944;5.382;2023-06-10T07:36:59;6.47;;;5.88;;
43650;SDS011;29247;50.944;5.382;2023-06-10T07:39:25;7.57;;;6.22;;
43650;SDS011;29247;50.944;5.382;2023-06-10T07:41:50;6.95;;;6.35;;
43650;SDS011;29247;50.944;5.382;2023-06-10T07:44:18;6.82;;;5.55;;
43650;SDS011;29247;50.944;5.382;2023-06-10T07:46:44;6.15;;;5.55;;
43650;SDS011;29247;50.944;5.382;2023-06-10T07:49:10;6.90;;;6.30;;
43650;SDS011;29247;50.944;5.382;2023-06-10T07:51:38;10.32;;;6.55;;
43650;SDS011;29247;50.944;5.382;2023-06-10T07:54:03;7.10;;;6.40;;
43650;SDS011;29247;50.944;5.382;2023-06-10T07:56:29;6.78;;;6.07;;
43650;SDS011;29247;50.944;5.382;2023-06-10T07:58:55;6.75;;;5.93;;
43650;SDS011;29247;50.944;5.382;2023-06-10T08:01:25;8.43;;;6.95;;
43650;SDS011;29247;50.944;5.382;2023-06-10T08:03:55;7.65;;;6.65;;
43650;SDS011;29247;50.944;5.382;2023-06-10T08:06:20;6.57;;;5.85;;
43650;SDS011;29247;50.944;5.382;2023-06-10T08:08:47;6.97;;;5.57;;
43650;SDS011;29247;50.944;5.382;2023-06-10T08:11:13;9.02;;;6.43;;
43650;SDS011;29247;50.944;5.382;2023-06-10T08:13:39;7.45;;;6.50;;
43650;SDS011;29247;50.944;5.382;2023-06-10T08:19:30;8.20;;;6.43;;
43650;SDS011;29247;50.944;5.382;2023-06-10T08:21:59;8.38;;;6.75;;
43650;SDS011;29247;50.944;5.382;2023-06-10T08:24:25;8.30;;;7.50;;
43650;SDS011;29247;50.944;5.382;2023-06-10T08:26:54;6.93;;;6.18;;
43650;SDS011;29247;50.944;5.382;2023-06-10T08:29:25;12.48;;;7.30;;
43650;SDS011;29247;50.944;5.382;2023-06-10T08:31:51;7.20;;;6.20;;
43650;SDS011;29247;50.944;5.382;2023-06-10T08:34:19;7.45;;;6.13;;
43650;SDS011;29247;50.944;5.382;2023-06-10T08:36:44;13.25;;;7.78;;
43650;SDS011;29247;50.944;5.382;2023-06-10T08:39:10;7.13;;;6.47;;
43650;SDS011;29247;50.944;5.382;2023-06-10T08:41:36;6.82;;;6.22;;
43650;SDS011;29247;50.944;5.382;2023-06-10T08:44:08;9.48;;;6.95;;
43650;SDS011;29247;50.944;5.382;2023-06-10T08:49:05;10.27;;;7.03;;
43650;SDS011;29247;50.944;5.382;2023-06-10T08:51:34;7.43;;;6.53;;
43650;SDS011;29247;50.944;5.382;2023-06-10T08:54:05;10.27;;;7.93;;
43650;SDS011;29247;50.944;5.382;2023-06-10T08:56:39;8.30;;;6.38;;
43650;SDS011;29247;50.944;5.382;2023-06-10T08:59:05;7.80;;;6.40;;
43650;SDS011;29247;50.944;5.382;2023-06-10T09:01:36;8.40;;;6.80;;
43650;SDS011;29247;50.944;5.382;2023-06-10T09:04:03;7.23;;;6.53;;
43650;SDS011;29247;50.944;5.382;2023-06-10T09:06:32;8.90;;;6.13;;
43650;SDS011;29247;50.944;5.382;2023-06-10T09:08:59;6.47;;;5.88;;
43650;SDS011;29247;50.944;5.382;2023-06-10T09:11:24;7.32;;;6.00;;
43650;SDS011;29247;50.944;5.382;2023-06-10T09:13:53;7.18;;;6.35;;
43650;SDS011;29247;50.944;5.382;2023-06-10T09:16:21;6.53;;;5.93;;
43650;SDS011;29247;50.944;5.382;2023-06-10T09:18:49;6.60;;;5.82;;
43650;SDS011;29247;50.944;5.382;2023-06-10T09:21:22;6.78;;;6.07;;
43650;SDS011;29247;50.944;5.382;2023-06-10T09:23:54;7.10;;;6.35;;
43650;SDS011;29247;50.944;5.382;2023-06-10T09:26:20;8.05;;;6.43;;
43650;SDS011;29247;50.944;5.382;2023-06-10T09:29:05;9.40;;;6.38;;
43650;SDS011;29247;50.944;5.382;2023-06-10T09:31:36;6.85;;;6.25;;
43650;SDS011;29247;50.944;5.382;2023-06-10T09:34:08;8.30;;;5.68;;
43650;SDS011;29247;50.944;5.382;2023-06-10T09:36:35;6.40;;;5.80;;
43650;SDS011;29247;50.944;5.382;2023-06-10T09:39:04;6.90;;;6.20;;
43650;SDS011;29247;50.944;5.382;2023-06-10T09:41:40;6.57;;;5.70;;
43650;SDS011;29247;50.944;5.382;2023-06-10T09:44:11;9.52;;;6.10;;
43650;SDS011;29247;50.944;5.382;2023-06-10T09:46:41;8.68;;;6.28;;
43650;SDS011;29247;50.944;5.382;2023-06-10T09:49:07;7.07;;;5.53;;
43650;SDS011;29247;50.944;5.382;2023-06-10T09:51:33;6.57;;;5.53;;
43650;SDS011;29247;50.944;5.382;2023-06-10T09:53:59;11.77;;;5.22;;
43650;SDS011;29247;50.944;5.382;2023-06-10T09:56:34;7.63;;;5.85;;
43650;SDS011;29247;50.944;5.382;2023-06-10T09:59:10;6.93;;;5.72;;
43650;SDS011;29247;50.944;5.382;2023-06-10T10:01:35;8.95;;;5.63;;
43650;SDS011;29247;50.944;5.382;2023-06-10T10:04:01;6.15;;;5.55;;
43650;SDS011;29247;50.944;5.382;2023-06-10T10:06:31;9.38;;;5.40;;
43650;SDS011;29247;50.944;5.382;2023-06-10T10:08:57;10.40;;;6.82;;
43650;SDS011;29247;50.944;5.382;2023-06-10T10:11:22;6.47;;;5.88;;
43650;SDS011;29247;50.944;5.382;2023-06-10T10:13:51;6.70;;;5.78;;
43650;SDS011;29247;50.944;5.382;2023-06-10T10:16:20;7.38;;;5.70;;
43650;SDS011;29247;50.944;5.382;2023-06-10T10:18:54;7.50;;;5.50;;
43650;SDS011;29247;50.944;5.382;2023-06-10T10:21:24;6.32;;;5.72;;
43650;SDS011;29247;50.944;5.382;2023-06-10T10:26:26;7.00;;;5.43;;
43650;SDS011;29247;50.944;5.382;2023-06-10T10:28:58;6.93;;;5.78;;
43650;SDS011;29247;50.944;5.382;2023-06-10T10:31:46;6.93;;;5.82;;
43650;SDS011;29247;50.944;5.382;2023-06-10T10:34:21;5.57;;;5.07;;
43650;SDS011;29247;50.944;5.382;2023-06-10T10:37:07;11.15;;;6.18;;
43650;SDS011;29247;50.944;5.382;2023-06-10T10:39:35;7.43;;;5.38;;
43650;SDS011;29247;50.944;5.382;2023-06-10T10:42:01;6.38;;;5.35;;
43650;SDS011;29247;50.944;5.382;2023-06-10T10:44:29;7.22;;;5.97;;
43650;SDS011;29247;50.944;5.382;2023-06-10T10:46:58;7.60;;;5.65;;
43650;SDS011;29247;50.944;5.382;2023-06-10T10:49:29;7.35;;;5.95;;
43650;SDS011;29247;50.944;5.382;2023-06-10T10:51:59;9.15;;;5.40;;
43650;SDS011;29247;50.944;5.382;2023-06-10T10:54:32;7.85;;;5.80;;
43650;SDS011;29247;50.944;5.382;2023-06-10T11:05:03;8.63;;;5.82;;
43650;SDS011;29247;50.944;5.382;2023-06-10T11:07:34;6.60;;;5.32;;
43650;SDS011;29247;50.944;5.382;2023-06-10T11:10:08;7.82;;;5.20;;
43650;SDS011;29247;50.944;5.382;2023-06-10T11:15:13;7.25;;;5.25;;
43650;SDS011;29247;50.944;5.382;2023-06-10T11:28:38;7.65;;;5.70;;
43650;SDS011;29247;50.944;5.382;2023-06-10T11:31:04;8.18;;;5.32;;
43650;SDS011;29247;50.944;5.382;2023-06-10T11:33:30;6.15;;;5.40;;
43650;SDS011;29247;50.944;5.382;2023-06-10T11:36:00;7.63;;;5.43;;
43650;SDS011;29247;50.944;5.382;2023-06-10T11:38:28;7.35;;;5.47;;
43650;SDS011;29247;50.944;5.382;2023-06-10T11:40:56;6.82;;;6.13;;
43650;SDS011;29247;50.944;5.382;2023-06-10T11:43:22;7.30;;;6.22;;
43650;SDS011;29247;50.944;5.382;2023-06-10T11:45:54;6.10;;;5.53;;
43650;SDS011;29247;50.944;5.382;2023-06-10T11:48:21;5.95;;;5.43;;
43650;SDS011;29247;50.944;5.382;2023-06-10T11:50:49;6.60;;;5.60;;
43650;SDS011;29247;50.944;5.382;2023-06-10T11:53:17;8.82;;;5.15;;
43650;SDS011;29247;50.944;5.382;2023-06-10T11:55:44;7.03;;;6.32;;
43650;SDS011;29247;50.944;5.382;2023-06-10T11:58:19;7.50;;;5.37;;
43650;SDS011;29247;50.944;5.382;2023-06-10T12:00:48;7.28;;;5.93;;
43650;SDS011;29247;50.944;5.382;2023-06-10T12:03:16;6.35;;;5.43;;
43650;SDS011;29247;50.944;5.382;2023-06-10T12:08:30;5.97;;;5.38;;
43650;SDS011;29247;50.944;5.382;2023-06-10T12:11:06;6.88;;;4.78;;
43650;SDS011;29247;50.944;5.382;2023-06-10T12:13:34;5.80;;;5.20;;
43650;SDS011;29247;50.944;5.382;2023-06-10T12:16:06;5.55;;;5.05;;
43650;SDS011;29247;50.944;5.382;2023-06-10T12:18:34;7.85;;;5.20;;
43650;SDS011;29247;50.944;5.382;2023-06-10T12:20:59;5.90;;;5.25;;
43650;SDS011;29247;50.944;5.382;2023-06-10T12:23:25;6.20;;;5.60;;
43650;SDS011;29247;50.944;5.382;2023-06-10T12:25:57;5.88;;;4.93;;
43650;SDS011;29247;50.944;5.382;2023-06-10T12:28:27;8.00;;;5.53;;
43650;SDS011;29247;50.944;5.382;2023-06-10T12:31:06;7.45;;;5.47;;
43650;SDS011;29247;50.944;5.382;2023-06-10T12:33:32;5.63;;;4.85;;
43650;SDS011;29247;50.944;5.382;2023-06-10T12:35:58;5.72;;;5.22;;
43650;SDS011;29247;50.944;5.382;2023-06-10T12:38:25;5.30;;;4.80;;
43650;SDS011;29247;50.944;5.382;2023-06-10T12:40:54;6.22;;;5.63;;
43650;SDS011;29247;50.944;5.382;2023-06-10T12:43:30;6.35;;;5.20;;
43650;SDS011;29247;50.944;5.382;2023-06-10T12:46:07;5.75;;;5.22;;
43650;SDS011;29247;50.944;5.382;2023-06-10T12:48:34;5.00;;;4.60;;
43650;SDS011;29247;50.944;5.382;2023-06-10T12:51:00;6.63;;;4.80;;
43650;SDS011;29247;50.944;5.382;2023-06-10T12:53:30;5.57;;;5.07;;
43650;SDS011;29247;50.944;5.382;2023-06-10T12:55:57;6.18;;;5.53;;
43650;SDS011;29247;50.944;5.382;2023-06-10T12:58:25;7.57;;;4.82;;
43650;SDS011;29247;50.944;5.382;2023-06-10T13:00:51;6.38;;;4.80;;
43650;SDS011;29247;50.944;5.382;2023-06-10T13:03:20;5.68;;;5.18;;
43650;SDS011;29247;50.944;5.382;2023-06-10T13:05:51;6.95;;;4.53;;
43650;SDS011;29247;50.944;5.382;2023-06-10T13:08:21;5.57;;;4.82;;
43650;SDS011;29247;50.944;5.382;2023-06-10T13:10:47;6.50;;;5.63;;
43650;SDS011;29247;50.944;5.382;2023-06-10T13:13:15;5.25;;;4.63;;
43650;SDS011;29247;50.944;5.382;2023-06-10T13:15:41;5.18;;;4.65;;
43650;SDS011;29247;50.944;5.382;2023-06-10T13:18:07;5.55;;;4.68;;
43650;SDS011;29247;50.944;5.382;2023-06-10T13:20:33;5.40;;;4.90;;
43650;SDS011;29247;50.944;5.382;2023-06-10T13:23:01;7.38;;;4.60;;
43650;SDS011;29247;50.944;5.382;2023-06-10T13:25:29;8.85;;;4.95;;
43650;SDS011;29247;50.944;5.382;2023-06-10T13:27:55;4.85;;;4.13;;
43650;SDS011;29247;50.944;5.382;2023-06-10T13:30:23;7.63;;;5.30;;
43650;SDS011;29247;50.944;5.382;2023-06-10T13:32:51;6.93;;;5.47;;
43650;SDS011;29247;50.944;5.382;2023-06-10T13:35:21;4.95;;;4.55;;
43650;SDS011;29247;50.944;5.382;2023-06-10T13:37:47;5.70;;;4.45;;
43650;SDS011;29247;50.944;5.382;2023-06-10T13:40:13;7.45;;;5.15;;
43650;SDS011;29247;50.944;5.382;2023-06-10T13:42:38;5.43;;;4.80;;
43650;SDS011;29247;50.944;5.382;2023-06-10T13:45:04;5.70;;;5.20;;
43650;SDS011;29247;50.944;5.382;2023-06-10T13:47:31;5.93;;;5.32;;
43650;SDS011;29247;50.944;5.382;2023-06-10T13:49:56;5.93;;;5.20;;
43650;SDS011;29247;50.944;5.382;2023-06-10T13:52:22;6.00;;;4.97;;
43650;SDS011;29247;50.944;5.382;2023-06-10T13:54:50;6.13;;;5.00;;
43650;SDS011;29247;50.944;5.382;2023-06-10T13:57:18;4.97;;;4.57;;
43650;SDS011;29247;50.944;5.382;2023-06-10T13:59:48;7.53;;;5.50;;
43650;SDS011;29247;50.944;5.382;2023-06-10T14:02:14;5.85;;;5.25;;
43650;SDS011;29247;50.944;5.382;2023-06-10T14:04:42;7.07;;;5.28;;
43650;SDS011;29247;50.944;5.382;2023-06-10T14:07:10;5.35;;;4.85;;
43650;SDS011;29247;50.944;5.382;2023-06-10T14:09:38;6.03;;;5.43;;
43650;SDS011;29247;50.944;5.382;2023-06-10T14:12:03;6.13;;;4.10;;
43650;SDS011;29247;50.944;5.382;2023-06-10T14:14:30;6.45;;;4.50;;
43650;SDS011;29247;50.944;5.382;2023-06-10T14:16:59;5.00;;;4.40;;
43650;SDS011;29247;50.944;5.382;2023-06-10T14:19:25;5.35;;;4.70;;
43650;SDS011;29247;50.944;5.382;2023-06-10T14:21:50;4.75;;;4.30;;
43650;SDS011;29247;50.944;5.382;2023-06-10T14:24:18;5.43;;;4.93;;
43650;SDS011;29247;50.944;5.382;2023-06-10T14:26:43;5.75;;;4.53;;
43650;SDS011;29247;50.944;5.382;2023-06-10T14:29:09;4.97;;;4.28;;
43650;SDS011;29247;50.944;5.382;2023-06-10T14:31:35;5.15;;;4.65;;
43650;SDS011;29247;50.944;5.382;2023-06-10T14:34:00;4.78;;;4.38;;
43650;SDS011;29247;50.944;5.382;2023-06-10T14:36:26;8.50;;;4.70;;
43650;SDS011;29247;50.944;5.382;2023-06-10T14:38:51;4.68;;;4.30;;
43650;SDS011;29247;50.944;5.382;2023-06-10T14:41:18;4.82;;;4.30;;
43650;SDS011;29247;50.944;5.382;2023-06-10T14:43:44;5.22;;;4.57;;
43650;SDS011;29247;50.944;5.382;2023-06-10T14:46:15;5.63;;;4.57;;
43650;SDS011;29247;50.944;5.382;2023-06-10T14:48:40;7.68;;;5.55;;
43650;SDS011;29247;50.944;5.382;2023-06-10T14:51:08;5.40;;;4.90;;
43650;SDS011;29247;50.944;5.382;2023-06-10T14:53:34;5.30;;;4.78;;
43650;SDS011;29247;50.944;5.382;2023-06-10T14:56:00;5.63;;;5.03;;
43650;SDS011;29247;50.944;5.382;2023-06-10T14:58:26;8.38;;;5.82;;
43650;SDS011;29247;50.944;5.382;2023-06-10T15:00:51;7.03;;;5.25;;
43650;SDS011;29247;50.944;5.382;2023-06-10T15:03:17;8.02;;;6.60;;
43650;SDS011;29247;50.944;5.382;2023-06-10T15:05:45;6.22;;;5.65;;
43650;SDS011;29247;50.944;5.382;2023-06-10T15:08:14;11.40;;;5.93;;
43650;SDS011;29247;50.944;5.382;2023-06-10T15:10:42;7.07;;;6.20;;
43650;SDS011;29247;50.944;5.382;2023-06-10T15:13:09;8.18;;;5.15;;
43650;SDS011;29247;50.944;5.382;2023-06-10T15:15:34;6.78;;;5.63;;
43650;SDS011;29247;50.944;5.382;2023-06-10T15:18:00;7.35;;;6.63;;
43650;SDS011;29247;50.944;5.382;2023-06-10T15:20:25;6.68;;;6.07;;
43650;SDS011;29247;50.944;5.382;2023-06-10T15:22:51;9.65;;;5.72;;
43650;SDS011;29247;50.944;5.382;2023-06-10T15:25:18;6.88;;;5.60;;
43650;SDS011;29247;50.944;5.382;2023-06-10T15:27:44;6.25;;;5.38;;
43650;SDS011;29247;50.944;5.382;2023-06-10T15:30:10;6.68;;;5.72;;
43650;SDS011;29247;50.944;5.382;2023-06-10T15:32:35;7.18;;;5.88;;
43650;SDS011;29247;50.944;5.382;2023-06-10T15:35:06;6.13;;;5.53;;
43650;SDS011;29247;50.944;5.382;2023-06-10T15:37:31;7.05;;;5.18;;